Hyde, PA (16843)

10:25 PM EDT on September 30, 2016 (GMT -0400)
Clearfield | | Change Station

Elev 1127 ft 41.02 °N, 78.46 °W | Updated 7 seconds ago

Overcast
Overcast
55.5 °F
Feels Like 55.5 °F
N
2.0
Wind Variable Wind from NNW
Gusts 9.0 mph

Today
High -- | Low -- °F
--% Chance of Precip.
Yesterday
High -- | Low -- °F
Precip. -- in
Pressure 30.21 in
Visibility 4.0 miles
Clouds Overcast 300 ft
Dew Point 54 °F
Humidity 95%
Rainfall 0.14 in
Snow Depth Not available.
7:09 AM 6:56 PM
New Moon, 0% visible
METAR KFIG 010154Z AUTO 08008KT 4SM BR OVC003 12/12 A3020 RMK AO2 RAE10 CIG 003V008 SLP229 P0000 T01220122 $
Pressure 30.21 in
Visibility 4.0 miles
Clouds Overcast 300 ft
Dew Point 54 °F
Humidity 95%
Rainfall 0.14 in
Snow Depth Not available.
7:09 AM 6:56 PM
New Moon, 0% visible
METAR KFIG 010154Z AUTO 08008KT 4SM BR OVC003 12/12 A3020 RMK AO2 RAE10 CIG 003V008 SLP229 P0000 T01220122 $

10-Day Weather Forecast

Almanac

Astronomy

Sep. 30, 2016 Rise Set
Actual Time
Civil Twilight
Nautical Twilight
Astronomical Twilight
Moon
Length of Visible Light
Length of Day
Tomorrow will be .
, % of the Moon is Illuminated

Today's Extremes

State Highs State Lows

Community

WunderPhotos

Upload Photos

1,942,876 photos uploaded!

WunderBlog® & News

Nearby

Air Quality

  Air Quality AQ Index Pollutant
Not available.

Snow Depth

Station Depth Elevation

Earthquake Activity

City Distance Mag. Time & Date
Minimum magnitude displayed is 2.5.

Coastal Water Temperatures

Place Temperature

Stations

Nearby Weather Stations

Station Location Temp. Windchill Dew Point Humidity Wind Precip. Elev Updated Type
                   

Watches & Warnings

There are currently no watches in effect.